createdAt,value
2017-09-06T00:00:26.779Z,64
2017-09-06T00:01:34.866Z,64
2017-09-06T00:02:42.957Z,63
2017-09-06T00:03:51.042Z,64
2017-09-06T00:04:59.128Z,63
2017-09-06T00:06:07.218Z,64
2017-09-06T00:07:15.303Z,64
2017-09-06T00:08:23.390Z,64
2017-09-06T00:09:31.477Z,64
2017-09-06T00:10:39.566Z,63
2017-09-06T00:11:47.651Z,64
2017-09-06T00:12:55.737Z,63
2017-09-06T00:14:03.825Z,64
2017-09-06T00:15:11.923Z,63
2017-09-06T00:16:20.019Z,63
2017-09-06T00:17:28.106Z,64
2017-09-06T00:18:36.191Z,63
2017-09-06T00:19:44.280Z,63
2017-09-06T00:20:52.365Z,64
2017-09-06T00:22:00.455Z,64
2017-09-06T00:23:08.541Z,64
2017-09-06T00:24:16.634Z,64
2017-09-06T00:25:24.717Z,63
2017-09-06T00:26:32.802Z,64
2017-09-06T00:27:40.895Z,63
2017-09-06T00:28:48.982Z,64
2017-09-06T00:29:57.065Z,63
2017-09-06T00:31:05.156Z,63
2017-09-06T00:32:13.245Z,63
2017-09-06T00:33:21.344Z,64
2017-09-06T00:34:29.420Z,64
2017-09-06T00:35:37.506Z,64
2017-09-06T00:36:45.593Z,64
2017-09-06T00:37:53.679Z,63
2017-09-06T00:39:01.770Z,63
2017-09-06T00:40:09.854Z,63
2017-09-06T00:41:17.942Z,63
2017-09-06T00:42:26.029Z,63
2017-09-06T00:43:34.135Z,63
2017-09-06T00:44:42.205Z,64
2017-09-06T00:45:50.299Z,64
2017-09-06T00:46:58.386Z,63
2017-09-06T00:48:06.474Z,64
2017-09-06T00:49:14.571Z,63
2017-09-06T00:50:22.665Z,63
2017-09-06T00:51:30.744Z,64
2017-09-06T00:52:38.833Z,64
2017-09-06T00:53:46.917Z,64
2017-09-06T00:54:55.006Z,64
2017-09-06T00:56:03.094Z,63
2017-09-06T00:57:11.180Z,63
2017-09-06T00:58:19.270Z,64
2017-09-06T00:59:27.364Z,64
2017-09-06T01:00:35.444Z,64
2017-09-06T01:01:43.532Z,64
2017-09-06T01:02:51.619Z,63
2017-09-06T01:03:59.707Z,64
2017-09-06T01:05:07.791Z,64
2017-09-06T01:06:15.879Z,63
2017-09-06T01:07:23.967Z,63
2017-09-06T01:08:32.074Z,64
2017-09-06T01:09:40.167Z,64
2017-09-06T01:10:48.230Z,64
2017-09-06T01:11:56.316Z,64
2017-09-06T01:13:04.404Z,64
2017-09-06T01:14:12.490Z,64
2017-09-06T01:15:20.578Z,64
2017-09-06T01:16:28.668Z,64
2017-09-06T01:17:36.753Z,63
2017-09-06T01:18:44.841Z,64
2017-09-06T01:19:52.943Z,64
2017-09-06T01:21:01.031Z,64
2017-09-06T01:22:09.119Z,64
2017-09-06T01:23:17.207Z,64
2017-09-06T01:24:25.293Z,64
2017-09-06T01:25:33.400Z,63
2017-09-06T01:26:41.468Z,64
2017-09-06T01:27:49.556Z,63
2017-09-06T01:28:57.642Z,63
2017-09-06T01:30:05.730Z,63
2017-09-06T01:31:13.837Z,63
2017-09-06T01:32:21.904Z,63
2017-09-06T01:33:29.993Z,63
2017-09-06T01:34:38.075Z,63
2017-09-06T01:35:46.167Z,64
2017-09-06T01:36:54.255Z,63
2017-09-06T01:38:02.340Z,63
2017-09-06T01:39:10.427Z,64
2017-09-06T01:40:18.516Z,64
2017-09-06T01:41:26.603Z,64
2017-09-06T01:42:34.690Z,64
2017-09-06T01:43:42.785Z,63
2017-09-06T01:44:50.866Z,63
2017-09-06T01:45:58.953Z,64
2017-09-06T01:47:07.093Z,63
2017-09-06T01:48:15.181Z,63
2017-09-06T01:49:23.270Z,63
2017-09-06T01:50:31.358Z,63
2017-09-06T01:51:39.530Z,64
2017-09-06T01:52:47.530Z,63
2017-09-06T01:53:55.623Z,64
2017-09-06T01:55:03.709Z,64
2017-09-06T01:56:11.796Z,64
2017-09-06T01:57:19.892Z,63
2017-09-06T01:58:27.981Z,64
2017-09-06T01:59:36.074Z,63
2017-09-06T02:00:44.161Z,63
2017-09-06T02:01:52.252Z,64
2017-09-06T02:03:00.339Z,63
2017-09-06T02:04:08.432Z,63
2017-09-06T02:05:16.521Z,64
2017-09-06T02:06:24.608Z,63
2017-09-06T02:07:32.696Z,63
2017-09-06T02:08:40.782Z,63
2017-09-06T02:09:48.871Z,63
2017-09-06T02:10:56.960Z,63
2017-09-06T02:12:05.048Z,64
2017-09-06T02:13:13.134Z,63
2017-09-06T02:14:21.225Z,63
2017-09-06T02:15:29.308Z,63
2017-09-06T02:16:37.396Z,63
2017-09-06T02:17:45.483Z,64
2017-09-06T02:18:53.568Z,64
2017-09-06T02:20:01.651Z,63
2017-09-06T02:21:09.743Z,63
2017-09-06T02:22:17.831Z,63
2017-09-06T02:23:25.919Z,63
2017-09-06T02:24:34.008Z,64
2017-09-06T02:25:42.094Z,63
2017-09-06T02:26:50.183Z,63
2017-09-06T02:27:58.267Z,64
2017-09-06T02:29:06.456Z,63
2017-09-06T02:30:14.440Z,64
2017-09-06T02:31:22.528Z,64
2017-09-06T02:32:30.619Z,63
2017-09-06T02:33:38.703Z,63
2017-09-06T02:34:46.790Z,64
2017-09-06T02:35:54.879Z,63
2017-09-06T02:37:02.964Z,63
2017-09-06T02:38:11.052Z,63
2017-09-06T02:39:19.140Z,63
2017-09-06T02:40:27.227Z,63
2017-09-06T02:41:35.314Z,63
2017-09-06T02:42:43.402Z,63
2017-09-06T02:43:51.495Z,64
2017-09-06T02:44:59.577Z,64
2017-09-06T02:46:07.663Z,63
2017-09-06T02:47:15.755Z,63
2017-09-06T02:48:23.837Z,64
2017-09-06T02:49:31.924Z,64
2017-09-06T02:50:40.013Z,64
2017-09-06T02:51:48.107Z,63
2017-09-06T02:52:56.188Z,63
2017-09-06T02:54:04.274Z,63
2017-09-06T02:55:12.361Z,64
2017-09-06T02:56:20.446Z,63
2017-09-06T02:57:28.533Z,64
2017-09-06T02:58:36.620Z,63
2017-09-06T02:59:44.707Z,64
2017-09-06T03:00:52.794Z,64
2017-09-06T03:02:00.882Z,63
2017-09-06T03:03:08.981Z,64
2017-09-06T03:04:17.065Z,63
2017-09-06T03:05:25.151Z,64
2017-09-06T03:06:33.256Z,64
2017-09-06T03:07:41.325Z,63
2017-09-06T03:08:49.414Z,63
2017-09-06T03:09:57.519Z,63
2017-09-06T03:11:05.594Z,63
2017-09-06T03:12:13.676Z,63
2017-09-06T03:13:21.763Z,63
2017-09-06T03:14:29.850Z,63
2017-09-06T03:15:37.937Z,64
2017-09-06T03:16:46.038Z,63
2017-09-06T03:17:54.126Z,64
2017-09-06T03:19:02.214Z,63
2017-09-06T03:20:10.301Z,64
2017-09-06T03:21:18.385Z,63
2017-09-06T03:22:26.473Z,64
2017-09-06T03:23:34.559Z,64
2017-09-06T03:24:42.647Z,63
2017-09-06T03:25:50.744Z,64
2017-09-06T03:26:58.833Z,64
2017-09-06T03:28:06.919Z,63
2017-09-06T03:29:15.006Z,63
2017-09-06T03:30:23.098Z,63
2017-09-06T03:31:31.183Z,63
2017-09-06T03:32:39.277Z,63
2017-09-06T03:33:47.360Z,64
2017-09-06T03:34:55.449Z,64
2017-09-06T03:36:03.536Z,64
2017-09-06T03:37:11.624Z,63
2017-09-06T03:38:19.716Z,63
2017-09-06T03:39:27.797Z,63
2017-09-06T03:40:35.884Z,63
2017-09-06T03:41:43.972Z,63
2017-09-06T03:42:52.060Z,63
2017-09-06T03:44:00.147Z,63
2017-09-06T03:45:08.235Z,63
2017-09-06T03:46:16.329Z,63
2017-09-06T03:47:24.415Z,64
2017-09-06T03:48:32.492Z,63
2017-09-06T03:49:40.580Z,63
2017-09-06T03:50:48.671Z,63
2017-09-06T03:51:56.769Z,64
2017-09-06T03:53:04.856Z,63
2017-09-06T03:54:12.944Z,64
2017-09-06T03:55:21.030Z,63
2017-09-06T03:56:29.116Z,64
2017-09-06T03:57:37.203Z,64
2017-09-06T03:58:45.295Z,64
2017-09-06T03:59:53.379Z,64
2017-09-06T04:01:01.467Z,64
2017-09-06T04:02:09.559Z,64
2017-09-06T04:03:17.644Z,64
2017-09-06T04:04:25.729Z,64
2017-09-06T04:05:33.813Z,64
2017-09-06T04:06:41.901Z,64
2017-09-06T04:07:49.990Z,64
2017-09-06T04:08:58.076Z,64
2017-09-06T04:10:06.458Z,64
2017-09-06T04:11:14.259Z,64
2017-09-06T04:12:22.343Z,64
2017-09-06T04:13:30.431Z,64
2017-09-06T04:14:38.516Z,64
2017-09-06T04:15:46.612Z,64
2017-09-06T04:16:54.699Z,65
2017-09-06T04:18:02.794Z,65
2017-09-06T04:19:10.893Z,64
2017-09-06T04:20:18.968Z,64
2017-09-06T04:21:27.055Z,64
2017-09-06T04:22:35.143Z,65
2017-09-06T04:23:43.231Z,65
2017-09-06T04:24:51.347Z,65
2017-09-06T04:25:59.404Z,65
2017-09-06T04:27:07.494Z,65
2017-09-06T04:28:15.578Z,65
2017-09-06T04:29:23.664Z,65
2017-09-06T04:30:32.911Z,64
2017-09-06T04:31:39.836Z,64
2017-09-06T04:32:47.925Z,65
2017-09-06T04:33:57.432Z,65
2017-09-06T04:35:04.131Z,65
2017-09-06T04:36:12.187Z,65
2017-09-06T04:37:20.273Z,65
2017-09-06T04:38:28.975Z,65
2017-09-06T04:39:36.788Z,65
2017-09-06T04:40:44.534Z,64
2017-09-06T04:41:52.672Z,64
2017-09-06T04:43:00.715Z,65
2017-09-06T04:44:08.795Z,65
2017-09-06T04:45:16.881Z,65
2017-09-06T04:46:24.971Z,65
2017-09-06T04:47:33.056Z,65
2017-09-06T04:48:41.145Z,65
2017-09-06T04:49:49.232Z,65
2017-09-06T04:50:57.326Z,65
2017-09-06T04:52:05.430Z,65
2017-09-06T04:53:13.504Z,65
2017-09-06T04:54:21.590Z,65
2017-09-06T04:55:29.676Z,64
2017-09-06T04:56:37.762Z,65
2017-09-06T04:57:45.847Z,65
2017-09-06T04:58:54.284Z,64
2017-09-06T05:00:02.312Z,65
2017-09-06T05:01:10.109Z,65
2017-09-06T05:02:18.350Z,65
2017-09-06T05:03:26.285Z,65
2017-09-06T05:04:34.370Z,65
2017-09-06T05:05:42.460Z,64
2017-09-06T05:06:50.550Z,65
2017-09-06T05:07:58.633Z,65
2017-09-06T05:09:06.718Z,65
2017-09-06T05:10:14.806Z,65
2017-09-06T05:11:22.894Z,65
2017-09-06T05:12:30.980Z,65
2017-09-06T05:13:39.066Z,65
2017-09-06T05:14:47.156Z,65
2017-09-06T05:15:55.241Z,64
2017-09-06T05:17:03.328Z,65
2017-09-06T05:18:11.421Z,65
2017-09-06T05:19:19.502Z,64
2017-09-06T05:20:27.591Z,65
2017-09-06T05:21:35.676Z,65
2017-09-06T05:22:43.764Z,65
2017-09-06T05:23:51.851Z,65
2017-09-06T05:24:59.937Z,65
2017-09-06T05:26:08.024Z,65
2017-09-06T05:27:16.129Z,65
2017-09-06T05:28:24.197Z,65
2017-09-06T05:29:32.296Z,65
2017-09-06T05:30:40.381Z,65
2017-09-06T05:31:48.468Z,65
2017-09-06T05:32:56.554Z,65
2017-09-06T05:34:04.641Z,66
2017-09-06T05:35:12.727Z,66
2017-09-06T05:36:20.832Z,66
2017-09-06T05:37:28.902Z,66
2017-09-06T05:38:36.990Z,66
2017-09-06T05:39:45.078Z,67
2017-09-06T05:40:53.166Z,66
2017-09-06T05:42:01.252Z,66
2017-09-06T05:43:09.338Z,65
2017-09-06T05:44:17.426Z,65
2017-09-06T05:45:25.512Z,65
2017-09-06T05:46:33.602Z,65
2017-09-06T05:47:41.686Z,65
2017-09-06T05:48:49.774Z,65
2017-09-06T05:49:57.861Z,65
2017-09-06T05:51:06.000Z,65
2017-09-06T05:52:14.036Z,65
2017-09-06T05:53:22.123Z,65
2017-09-06T05:54:30.209Z,65
2017-09-06T05:55:38.295Z,65
2017-09-06T05:56:46.407Z,65
2017-09-06T05:57:54.470Z,65
2017-09-06T05:59:02.558Z,65
2017-09-06T06:00:10.647Z,65
2017-09-06T06:01:18.731Z,65
2017-09-06T06:02:26.874Z,65
2017-09-06T06:03:34.970Z,65
2017-09-06T06:04:43.056Z,65
2017-09-06T06:05:51.144Z,64
2017-09-06T06:06:59.232Z,65
2017-09-06T06:08:07.317Z,64
2017-09-06T06:09:15.412Z,64
2017-09-06T06:10:23.500Z,65
2017-09-06T06:11:31.586Z,64
2017-09-06T06:12:39.679Z,64
2017-09-06T06:13:47.769Z,65
2017-09-06T06:14:55.856Z,65
2017-09-06T06:16:03.944Z,64
2017-09-06T06:17:12.036Z,65
2017-09-06T06:18:20.122Z,65
2017-09-06T06:19:28.204Z,64
2017-09-06T06:20:36.291Z,65
2017-09-06T06:21:44.380Z,65
2017-09-06T06:22:52.466Z,65
2017-09-06T06:24:00.553Z,64
2017-09-06T06:25:08.637Z,64
2017-09-06T06:26:16.726Z,65
2017-09-06T06:27:24.815Z,64
2017-09-06T06:28:32.902Z,64
2017-09-06T06:29:40.989Z,64
2017-09-06T06:30:49.078Z,64
2017-09-06T06:31:57.163Z,64
2017-09-06T06:33:05.249Z,64
2017-09-06T06:34:13.342Z,64
2017-09-06T06:35:21.429Z,64
2017-09-06T06:36:29.522Z,64
2017-09-06T06:37:37.612Z,64
2017-09-06T06:38:45.700Z,64
2017-09-06T06:39:53.785Z,64
2017-09-06T06:41:01.871Z,64
2017-09-06T06:42:09.958Z,65
2017-09-06T06:43:18.070Z,65
2017-09-06T06:44:26.133Z,65
2017-09-06T06:45:34.225Z,65
2017-09-06T06:46:42.312Z,65
2017-09-06T06:47:50.399Z,65
2017-09-06T06:48:58.484Z,65
2017-09-06T06:50:06.589Z,64
2017-09-06T06:51:14.668Z,65
2017-09-06T06:52:22.754Z,65
2017-09-06T06:53:30.841Z,64
2017-09-06T06:54:38.937Z,65
2017-09-06T06:55:47.025Z,65
2017-09-06T06:56:55.113Z,65
2017-09-06T06:58:03.200Z,65
2017-09-06T06:59:11.288Z,65
2017-09-06T07:00:19.373Z,65
2017-09-06T07:01:27.460Z,65
2017-09-06T07:02:35.565Z,65
2017-09-06T07:03:43.650Z,65
2017-09-06T07:04:51.737Z,65
2017-09-06T07:05:59.824Z,65
2017-09-06T07:07:07.912Z,65
2017-09-06T07:08:15.999Z,64
2017-09-06T07:09:24.088Z,64
2017-09-06T07:10:32.174Z,65
2017-09-06T07:11:40.261Z,65
2017-09-06T07:12:48.345Z,65
2017-09-06T07:13:56.432Z,65
2017-09-06T07:15:04.520Z,65
2017-09-06T07:16:12.606Z,65
2017-09-06T07:17:20.695Z,65
2017-09-06T07:18:28.797Z,65
2017-09-06T07:19:36.882Z,65
2017-09-06T07:20:44.972Z,65
2017-09-06T07:21:53.057Z,65
2017-09-06T07:23:01.150Z,65
2017-09-06T07:24:09.249Z,65
2017-09-06T07:25:17.322Z,65
2017-09-06T07:26:25.403Z,65
2017-09-06T07:27:33.493Z,65
2017-09-06T07:28:41.577Z,65
2017-09-06T07:29:49.665Z,65
2017-09-06T07:30:57.751Z,65
2017-09-06T07:32:05.856Z,65
2017-09-06T07:33:13.926Z,65
2017-09-06T07:34:22.014Z,65
2017-09-06T07:35:30.104Z,65
2017-09-06T07:36:38.186Z,65
2017-09-06T07:37:46.275Z,65
2017-09-06T07:38:54.361Z,65
2017-09-06T07:40:02.448Z,65
2017-09-06T07:41:10.534Z,65
2017-09-06T07:42:18.623Z,65
2017-09-06T07:43:26.709Z,65
2017-09-06T07:44:34.801Z,65
2017-09-06T07:45:42.891Z,65
2017-09-06T07:46:50.972Z,65
2017-09-06T07:47:59.059Z,65
2017-09-06T07:49:07.146Z,65
2017-09-06T07:50:15.232Z,65
2017-09-06T07:51:23.320Z,65
2017-09-06T07:52:31.407Z,65
2017-09-06T07:53:39.494Z,65
2017-09-06T07:54:47.580Z,65
2017-09-06T07:55:55.667Z,65
2017-09-06T07:57:03.758Z,65
2017-09-06T07:58:11.841Z,65
2017-09-06T07:59:19.927Z,65
2017-09-06T08:00:28.016Z,65
2017-09-06T08:01:36.103Z,65
2017-09-06T08:02:44.194Z,65
2017-09-06T08:03:52.277Z,65
2017-09-06T08:05:00.362Z,65
2017-09-06T08:06:08.450Z,65
2017-09-06T08:07:16.543Z,65
2017-09-06T08:08:24.692Z,66
2017-09-06T08:09:32.778Z,65
2017-09-06T08:10:40.976Z,65
2017-09-06T08:11:49.069Z,65
2017-09-06T08:12:57.149Z,65
2017-09-06T08:14:05.237Z,65
2017-09-06T08:15:13.343Z,65
2017-09-06T08:16:21.408Z,65
2017-09-06T08:17:29.501Z,65
2017-09-06T08:18:37.598Z,65
2017-09-06T08:19:45.685Z,65
2017-09-06T08:20:53.772Z,65
2017-09-06T08:22:01.863Z,65
2017-09-06T08:23:09.945Z,65
2017-09-06T08:24:18.033Z,65
2017-09-06T08:25:26.119Z,65
2017-09-06T08:26:34.205Z,65
2017-09-06T08:27:42.293Z,65
2017-09-06T08:28:50.382Z,65
2017-09-06T08:29:58.467Z,65
2017-09-06T08:31:06.555Z,65
2017-09-06T08:32:14.651Z,65
2017-09-06T08:33:22.744Z,65
2017-09-06T08:34:30.826Z,65
2017-09-06T08:35:38.926Z,65
2017-09-06T08:36:47.009Z,65
2017-09-06T08:37:55.095Z,65
2017-09-06T08:39:03.182Z,65
2017-09-06T08:40:11.269Z,64
2017-09-06T08:56:06.247Z,65
2017-09-06T08:57:14.356Z,65
2017-09-06T08:58:22.347Z,65
2017-09-06T08:59:30.426Z,65
2017-09-06T09:00:38.509Z,65
2017-09-06T09:01:46.602Z,65
2017-09-06T09:02:54.722Z,65
2017-09-06T09:04:02.767Z,65
2017-09-06T09:05:10.851Z,65
2017-09-06T09:06:18.940Z,65
2017-09-06T09:07:27.024Z,65
2017-09-06T09:08:35.110Z,65
2017-09-06T09:09:43.199Z,65
2017-09-06T09:10:51.285Z,65
2017-09-06T09:11:59.372Z,65
2017-09-06T09:13:07.458Z,65
2017-09-06T09:14:15.545Z,65
2017-09-06T09:15:23.632Z,65
2017-09-06T09:16:31.726Z,65
2017-09-06T09:17:39.812Z,65
2017-09-06T09:18:47.901Z,65
2017-09-06T09:19:55.989Z,65
2017-09-06T09:21:04.083Z,65
2017-09-06T09:22:12.180Z,65
2017-09-06T09:23:20.268Z,65
2017-09-06T09:24:28.355Z,65
2017-09-06T09:25:36.441Z,65
2017-09-06T09:26:44.529Z,65
2017-09-06T09:27:52.618Z,65
2017-09-06T09:29:00.714Z,65
2017-09-06T09:30:08.808Z,65
2017-09-06T09:31:16.894Z,65
2017-09-06T09:32:24.982Z,65
2017-09-06T09:33:33.077Z,65
2017-09-06T09:34:41.165Z,65
2017-09-06T09:35:49.245Z,65
2017-09-06T09:36:57.332Z,65
2017-09-06T09:38:05.538Z,65
2017-09-06T09:39:13.505Z,64
2017-09-06T09:40:21.594Z,65
2017-09-06T09:41:29.688Z,64
2017-09-06T09:42:37.775Z,65
2017-09-06T09:43:45.864Z,65
2017-09-06T09:44:53.954Z,65
2017-09-06T09:46:02.046Z,65
2017-09-06T09:47:10.126Z,65
2017-09-06T09:48:18.216Z,65
2017-09-06T09:49:26.302Z,65
2017-09-06T09:50:34.389Z,65
2017-09-06T09:51:42.481Z,65
2017-09-06T09:52:50.566Z,65
2017-09-06T09:53:58.655Z,64
2017-09-06T09:55:06.745Z,65
2017-09-06T09:56:14.829Z,65
2017-09-06T09:57:22.916Z,65
2017-09-06T09:58:31.004Z,65
2017-09-06T09:59:39.092Z,65
2017-09-06T10:00:47.177Z,65
2017-09-06T10:01:55.275Z,65
2017-09-06T10:03:03.361Z,65
2017-09-06T10:04:11.451Z,65
2017-09-06T10:05:19.538Z,65
2017-09-06T10:06:27.627Z,64
2017-09-06T10:07:35.712Z,64
2017-09-06T10:08:43.801Z,65
2017-09-06T10:09:51.888Z,65
2017-09-06T10:10:59.975Z,65
2017-09-06T10:12:08.064Z,65
2017-09-06T10:13:16.151Z,65
2017-09-06T10:14:24.238Z,65
2017-09-06T10:15:32.325Z,65
2017-09-06T10:16:40.414Z,65
2017-09-06T10:17:48.502Z,65
2017-09-06T10:18:56.590Z,65
2017-09-06T10:20:04.677Z,65
2017-09-06T10:21:12.766Z,65
2017-09-06T10:22:20.852Z,65
2017-09-06T10:23:28.941Z,65
2017-09-06T10:24:37.027Z,65
2017-09-06T10:25:45.115Z,64
2017-09-06T10:26:53.203Z,65
2017-09-06T10:28:01.300Z,64
2017-09-06T10:29:09.378Z,65
2017-09-06T10:30:17.465Z,65
2017-09-06T10:31:25.554Z,65
2017-09-06T10:32:33.666Z,64
2017-09-06T10:33:41.758Z,64
2017-09-06T10:34:49.844Z,65
2017-09-06T10:35:57.941Z,64
2017-09-06T10:37:06.027Z,65
2017-09-06T10:38:14.132Z,65
2017-09-06T10:39:22.211Z,65
2017-09-06T10:40:30.297Z,65
2017-09-06T10:41:38.390Z,65
2017-09-06T10:42:46.472Z,64
2017-09-06T10:43:54.560Z,64
2017-09-06T10:45:02.648Z,64
2017-09-06T10:46:10.735Z,64
2017-09-06T10:47:18.827Z,64
2017-09-06T10:48:26.916Z,64
2017-09-06T10:49:35.000Z,64
2017-09-06T10:50:43.089Z,64
2017-09-06T10:51:51.175Z,64
2017-09-06T10:52:59.261Z,64
2017-09-06T10:54:07.350Z,64
2017-09-06T10:55:15.438Z,64
2017-09-06T10:56:23.525Z,64
2017-09-06T10:57:31.615Z,64
2017-09-06T10:58:39.699Z,64
2017-09-06T10:59:47.789Z,64
2017-09-06T11:00:55.875Z,64
2017-09-06T11:02:03.968Z,64
2017-09-06T11:03:12.051Z,64
2017-09-06T11:04:20.139Z,64
2017-09-06T11:05:28.226Z,64
2017-09-06T11:06:36.315Z,64
2017-09-06T11:07:44.403Z,64
2017-09-06T11:08:52.491Z,64
2017-09-06T11:10:00.609Z,64
2017-09-06T11:11:08.707Z,64
2017-09-06T11:12:16.796Z,64
2017-09-06T11:13:24.884Z,64
2017-09-06T11:14:32.970Z,64
2017-09-06T11:15:41.075Z,64
2017-09-06T11:16:49.147Z,64
2017-09-06T11:17:57.237Z,64
2017-09-06T11:19:05.330Z,64
2017-09-06T11:20:13.410Z,64
2017-09-06T11:21:21.506Z,64
2017-09-06T11:22:29.593Z,64
2017-09-06T11:23:37.676Z,64
2017-09-06T11:24:45.760Z,64
2017-09-06T11:25:53.862Z,64
2017-09-06T11:27:01.958Z,64
2017-09-06T11:28:10.042Z,64
2017-09-06T11:29:18.131Z,64
2017-09-06T11:30:26.225Z,64
2017-09-06T11:31:34.367Z,64
2017-09-06T11:32:42.397Z,64
2017-09-06T11:33:50.483Z,64
2017-09-06T11:34:58.574Z,64
2017-09-06T11:36:06.662Z,64
2017-09-06T11:37:14.753Z,64
2017-09-06T11:38:22.836Z,64
2017-09-06T11:39:30.921Z,64
2017-09-06T11:40:39.016Z,64
2017-09-06T11:41:47.097Z,64
2017-09-06T11:42:55.186Z,64
2017-09-06T11:44:03.273Z,64
2017-09-06T11:45:11.362Z,64
2017-09-06T11:46:19.451Z,64
2017-09-06T11:47:27.537Z,64
2017-09-06T11:48:35.629Z,64
2017-09-06T11:49:43.714Z,64
2017-09-06T11:50:51.800Z,64
2017-09-06T11:51:59.898Z,64
2017-09-06T11:53:07.975Z,64
2017-09-06T11:54:16.064Z,64
2017-09-06T11:55:24.152Z,64
2017-09-06T11:56:32.241Z,64
2017-09-06T11:57:40.330Z,64
2017-09-06T11:58:48.415Z,64
2017-09-06T11:59:56.506Z,64
2017-09-06T12:01:04.591Z,64
2017-09-06T12:02:12.682Z,64
2017-09-06T12:03:20.768Z,64
2017-09-06T12:04:28.882Z,64
2017-09-06T12:05:36.944Z,64
2017-09-06T12:06:45.032Z,64
2017-09-06T12:07:53.124Z,64
2017-09-06T12:09:01.206Z,64
2017-09-06T12:10:09.296Z,64
2017-09-06T12:11:17.381Z,64
2017-09-06T12:12:25.468Z,64
2017-09-06T12:13:33.558Z,64
2017-09-06T12:14:41.646Z,64
2017-09-06T12:15:49.737Z,64
2017-09-06T12:16:57.823Z,64
2017-09-06T12:18:05.908Z,64
2017-09-06T12:19:14.001Z,64
2017-09-06T12:20:22.085Z,64
2017-09-06T12:21:30.173Z,64
2017-09-06T12:22:38.267Z,64
2017-09-06T12:23:46.355Z,64
2017-09-06T12:24:54.444Z,64
2017-09-06T12:26:02.530Z,64
2017-09-06T12:27:10.618Z,64
2017-09-06T12:28:18.708Z,64
2017-09-06T12:29:26.792Z,64
2017-09-06T12:30:34.881Z,64
2017-09-06T12:31:42.984Z,64
2017-09-06T12:32:51.056Z,64
2017-09-06T12:33:59.146Z,64
2017-09-06T12:35:07.245Z,64
2017-09-06T12:36:15.345Z,64
2017-09-06T12:37:23.418Z,64
2017-09-06T12:38:31.593Z,64
2017-09-06T12:39:39.599Z,64
2017-09-06T12:40:47.687Z,64
2017-09-06T12:41:55.778Z,64
2017-09-06T12:43:03.862Z,64
2017-09-06T12:44:11.950Z,64
2017-09-06T12:45:20.039Z,64
2017-09-06T12:46:28.128Z,64
2017-09-06T12:47:36.216Z,64
2017-09-06T12:48:44.305Z,64
2017-09-06T12:49:52.393Z,64
2017-09-06T12:51:00.478Z,64
2017-09-06T12:52:08.568Z,64
2017-09-06T12:53:16.654Z,64
2017-09-06T12:54:24.743Z,64
2017-09-06T12:55:32.829Z,64
2017-09-06T12:56:40.917Z,64
2017-09-06T12:57:49.006Z,63
2017-09-06T12:58:57.094Z,64
2017-09-06T13:00:05.184Z,64
2017-09-06T13:01:13.273Z,64
2017-09-06T13:02:21.358Z,64
2017-09-06T13:03:29.444Z,64
2017-09-06T13:04:37.533Z,64
2017-09-06T13:05:45.621Z,64
2017-09-06T13:06:53.711Z,64
2017-09-06T13:08:01.799Z,64
2017-09-06T13:09:09.886Z,64
2017-09-06T13:10:17.975Z,64
2017-09-06T13:11:26.060Z,64
2017-09-06T13:12:34.148Z,64
2017-09-06T13:13:42.234Z,64
2017-09-06T13:14:50.323Z,64
2017-09-06T13:15:58.412Z,64
2017-09-06T13:17:06.499Z,64
2017-09-06T13:18:14.588Z,64
2017-09-06T13:19:22.677Z,64
2017-09-06T13:20:30.764Z,64
2017-09-06T13:21:38.850Z,64
2017-09-06T13:22:46.939Z,64
2017-09-06T13:23:55.026Z,64
2017-09-06T13:25:03.112Z,64
2017-09-06T13:26:11.203Z,64
2017-09-06T13:27:19.290Z,64
2017-09-06T13:28:27.379Z,64
2017-09-06T13:29:35.469Z,64
2017-09-06T13:30:43.557Z,64
2017-09-06T13:31:51.639Z,64
2017-09-06T13:32:59.728Z,63
2017-09-06T13:34:07.815Z,64
2017-09-06T13:35:15.904Z,64
2017-09-06T13:36:24.008Z,64
2017-09-06T13:37:32.088Z,64
2017-09-06T13:38:40.182Z,64
2017-09-06T13:39:48.264Z,64
2017-09-06T13:40:56.352Z,64
2017-09-06T13:42:04.471Z,64
2017-09-06T13:43:12.535Z,64
2017-09-06T13:44:20.624Z,64
2017-09-06T13:45:28.707Z,64
2017-09-06T13:46:36.797Z,64
2017-09-06T13:47:44.892Z,64
2017-09-06T13:48:52.979Z,64
2017-09-06T13:50:01.061Z,64
2017-09-06T13:51:09.153Z,64
2017-09-06T13:52:17.242Z,63
2017-09-06T13:53:25.330Z,64
2017-09-06T13:54:33.418Z,63
2017-09-06T13:55:41.508Z,64
2017-09-06T13:56:49.596Z,64
2017-09-06T13:57:57.680Z,63
2017-09-06T13:59:05.770Z,64
2017-09-06T14:01:21.947Z,63
2017-09-06T14:02:30.033Z,64
2017-09-06T14:03:38.121Z,64
2017-09-06T14:04:46.209Z,63
2017-09-06T14:05:54.299Z,64
2017-09-06T14:07:02.384Z,64
2017-09-06T14:08:10.471Z,64
2017-09-06T14:09:18.560Z,64
2017-09-06T14:10:26.651Z,64
2017-09-06T14:11:34.740Z,64
2017-09-06T14:12:42.828Z,64
2017-09-06T14:13:50.923Z,64
2017-09-06T14:14:59.009Z,64
2017-09-06T14:16:07.099Z,63
2017-09-06T14:17:15.187Z,64
2017-09-06T14:18:23.276Z,64
2017-09-06T14:19:31.365Z,63
2017-09-06T14:20:39.453Z,64
2017-09-06T14:21:47.541Z,63
2017-09-06T14:22:55.631Z,63
2017-09-06T14:24:03.719Z,64
2017-09-06T14:25:11.817Z,64
2017-09-06T14:26:19.904Z,64
2017-09-06T14:27:27.991Z,63
2017-09-06T14:28:36.078Z,64
2017-09-06T14:29:44.170Z,63
2017-09-06T14:30:52.255Z,64
2017-09-06T14:32:00.342Z,64
2017-09-06T14:33:08.428Z,64
2017-09-06T14:34:16.526Z,63
2017-09-06T14:35:24.614Z,63
2017-09-06T14:36:32.704Z,64
2017-09-06T14:37:40.789Z,63
2017-09-06T14:38:48.878Z,64
2017-09-06T14:39:56.964Z,63
2017-09-06T14:41:05.053Z,64
2017-09-06T14:42:13.145Z,63
2017-09-06T14:43:21.227Z,63
2017-09-06T14:44:29.320Z,63
2017-09-06T14:45:37.407Z,64
2017-09-06T14:46:45.494Z,64
2017-09-06T14:47:53.630Z,63
2017-09-06T14:49:01.670Z,63
2017-09-06T14:50:09.758Z,63
2017-09-06T14:51:17.844Z,63
2017-09-06T14:52:25.935Z,63
2017-09-06T14:53:34.021Z,63
2017-09-06T14:54:42.111Z,64
2017-09-06T14:55:50.199Z,63
2017-09-06T14:56:58.287Z,63
2017-09-06T14:58:06.383Z,63
2017-09-06T14:59:14.472Z,63
2017-09-06T15:00:22.557Z,63
2017-09-06T15:01:30.646Z,63
2017-09-06T15:02:38.734Z,64
2017-09-06T15:03:46.823Z,63
2017-09-06T15:04:54.920Z,64
2017-09-06T15:06:02.997Z,64
2017-09-06T15:07:11.134Z,63
2017-09-06T15:08:19.171Z,63
2017-09-06T15:09:27.280Z,63
2017-09-06T15:10:35.365Z,64
2017-09-06T15:11:43.436Z,63
2017-09-06T15:12:51.523Z,63
2017-09-06T15:13:59.609Z,63
2017-09-06T15:15:07.699Z,63
2017-09-06T15:16:15.785Z,63
2017-09-06T15:17:23.873Z,64
2017-09-06T15:18:31.962Z,64
2017-09-06T15:19:40.051Z,63
2017-09-06T15:20:48.136Z,63
2017-09-06T15:21:56.236Z,63
2017-09-06T15:23:04.313Z,63
2017-09-06T15:24:12.415Z,64
2017-09-06T15:25:20.488Z,63
2017-09-06T15:26:28.574Z,63
2017-09-06T15:27:36.719Z,63
2017-09-06T15:28:44.750Z,63
2017-09-06T15:29:52.871Z,63
2017-09-06T15:31:00.961Z,63
2017-09-06T15:32:09.047Z,63
2017-09-06T15:33:17.135Z,63
2017-09-06T15:34:25.225Z,63
2017-09-06T15:35:33.312Z,63
2017-09-06T15:36:41.402Z,62
2017-09-06T15:37:49.488Z,63
2017-09-06T15:38:57.575Z,62
2017-09-06T15:40:05.678Z,62
2017-09-06T15:41:13.756Z,63
2017-09-06T15:42:21.848Z,62
2017-09-06T15:43:29.932Z,62
2017-09-06T15:44:38.021Z,62
2017-09-06T15:45:46.108Z,62
2017-09-06T15:46:54.193Z,62
2017-09-06T15:48:02.286Z,62
2017-09-06T15:49:10.373Z,62
2017-09-06T15:50:18.461Z,62
2017-09-06T15:51:26.562Z,61
2017-09-06T15:52:34.647Z,61
2017-09-06T15:53:42.733Z,61
2017-09-06T15:54:50.823Z,61
2017-09-06T15:55:58.908Z,61
2017-09-06T15:57:06.994Z,61
2017-09-06T15:58:15.084Z,61
2017-09-06T15:59:23.172Z,60
2017-09-06T16:00:31.276Z,60
2017-09-06T16:01:39.344Z,60
2017-09-06T16:02:47.434Z,60
2017-09-06T16:03:55.522Z,60
2017-09-06T16:05:03.606Z,60
2017-09-06T16:06:11.695Z,60
2017-09-06T16:07:19.807Z,60
2017-09-06T16:08:27.891Z,60
2017-09-06T16:09:35.979Z,59
2017-09-06T16:10:44.292Z,59
2017-09-06T16:11:52.380Z,59
2017-09-06T16:13:00.467Z,60
2017-09-06T16:14:08.553Z,59
2017-09-06T16:15:16.643Z,59
2017-09-06T16:16:24.729Z,59
2017-09-06T16:17:32.814Z,59
2017-09-06T16:18:40.903Z,59
2017-09-06T16:19:48.991Z,59
2017-09-06T16:20:57.078Z,59
2017-09-06T16:22:05.166Z,59
2017-09-06T16:23:13.253Z,59
2017-09-06T16:24:21.343Z,59
2017-09-06T16:25:29.429Z,59
2017-09-06T16:26:37.514Z,59